Time;durP1;ratioP1;P1;durP2;ratioP2;P2;SDS_P1;SDS_P2;PMS_P1;PMS_P2;Temp;Humidity;BMP_temperature;BMP_pressure;BME280_temperature;BME280_humidity;BME280_pressure;Samples;Min_cycle;Max_cycle;Signal;HPM_P1;HPM_P2
2022/07/30 00:01:22;;;;;;;155.77;34.88;;;13.80;99.90;;;;;;5013037;28;20034;-87
2022/07/30 00:03:47;;;;;;;49.40;29.40;;;13.80;99.90;;;;;;4996342;28;20034;-88
2022/07/30 00:06:13;;;;;;;65.15;31.15;;;13.90;99.90;;;;;;4996720;28;20048;-88
2022/07/30 00:08:39;;;;;;;221.75;34.70;;;14.00;99.90;;;;;;4996600;28;20034;-88
2022/07/30 00:11:04;;;;;;;108.55;30.88;;;14.00;99.90;;;;;;5012852;28;20084;-88
2022/07/30 00:13:30;;;;;;;77.30;30.75;;;14.00;99.90;;;;;;4996580;28;20057;-87
2022/07/30 00:15:56;;;;;;;76.50;28.33;;;14.10;99.90;;;;;;5013182;28;20030;-87
2022/07/30 00:18:21;;;;;;;252.43;43.15;;;14.00;99.90;;;;;;4996566;28;20030;-88
2022/07/30 00:20:47;;;;;;;130.40;31.00;;;14.00;99.90;;;;;;5012702;28;20113;-87
2022/07/30 00:23:13;;;;;;;73.63;28.30;;;14.00;99.90;;;;;;4996279;28;20477;-88
2022/07/30 00:25:38;;;;;;;50.75;26.15;;;14.00;99.90;;;;;;5012668;28;20037;-87
2022/07/30 00:28:04;;;;;;;47.65;28.17;;;13.90;99.90;;;;;;5012647;28;20088;-87
2022/07/30 00:30:30;;;;;;;40.00;28.27;;;13.80;99.90;;;;;;5012518;28;20101;-87
2022/07/30 00:32:56;;;;;;;39.15;27.27;;;13.80;99.90;;;;;;4996284;28;20030;-87
2022/07/30 00:35:21;;;;;;;47.28;30.13;;;13.80;99.90;;;;;;4996115;28;20469;-87
2022/07/30 00:37:47;;;;;;;44.75;28.70;;;13.70;99.90;;;;;;4996455;28;20037;-87
2022/07/30 00:40:13;;;;;;;47.00;30.83;;;13.80;99.90;;;;;;4996211;28;20082;-88
2022/07/30 00:42:47;;;;;;;41.60;30.05;;;13.80;99.90;;;;;;5012732;28;20041;-88
2022/07/30 00:45:15;;;;;;;44.33;29.77;;;13.80;99.90;;;;;;4996424;28;20079;-87
2022/07/30 00:47:41;;;;;;;48.17;33.30;;;13.80;99.90;;;;;;4996219;28;20037;-87
2022/07/30 00:50:09;;;;;;;51.17;33.78;;;13.80;99.90;;;;;;5012563;28;20056;-88
2022/07/30 00:52:39;;;;;;;54.22;37.58;;;13.70;99.90;;;;;;5013635;28;20500;-88
2022/07/30 00:55:07;;;;;;;71.88;43.67;;;13.80;99.90;;;;;;5012602;28;20022;-88
2022/07/30 00:57:34;;;;;;;70.72;44.53;;;13.90;99.90;;;;;;4996367;28;20049;-88
2022/07/30 00:59:59;;;;;;;74.85;47.38;;;13.90;99.90;;;;;;4996064;28;20470;-88
2022/07/30 01:02:25;;;;;;;75.43;48.60;;;13.90;99.90;;;;;;4995938;28;20084;-88
2022/07/30 01:04:51;;;;;;;83.00;51.22;;;13.90;99.90;;;;;;4995583;28;20393;-88
2022/07/30 01:07:17;;;;;;;82.60;52.42;;;14.00;99.90;;;;;;5012358;28;20429;-89
2022/07/30 01:09:43;;;;;;;99.65;58.30;;;14.00;99.90;;;;;;4996150;28;20052;-87
2022/07/30 01:12:27;;;;;;;99.88;61.83;;;14.00;99.90;;;;;;5014594;28;20080;-88
2022/07/30 01:14:57;;;;;;;101.90;63.40;;;14.00;99.90;;;;;;4999690;28;20030;-88
2022/07/30 01:17:23;;;;;;;100.47;63.63;;;14.00;99.90;;;;;;4999770;28;20030;-89
2022/07/30 01:19:54;;;;;;;105.88;65.03;;;14.10;99.90;;;;;;5016104;28;20482;-89
2022/07/30 01:22:29;;;;;;;104.45;65.38;;;14.10;99.90;;;;;;5016283;28;20092;-89
2022/07/30 01:25:00;;;;;;;110.28;65.95;;;14.10;99.90;;;;;;4999736;28;20374;-88
2022/07/30 01:27:28;;;;;;;111.38;71.32;;;14.20;99.90;;;;;;5000016;28;20124;-89
2022/07/30 01:29:56;;;;;;;110.05;64.32;;;14.10;99.90;;;;;;4999941;28;20030;-89
2022/07/30 01:32:25;;;;;;;111.70;66.70;;;14.10;99.90;;;;;;5000121;28;20041;-90
2022/07/30 01:34:54;;;;;;;114.82;68.80;;;14.00;99.90;;;;;;5000058;28;20026;-89
2022/07/30 01:37:21;;;;;;;107.30;65.95;;;14.00;99.90;;;;;;4999995;28;20026;-89
2022/07/30 01:39:49;;;;;;;113.30;65.95;;;13.90;99.90;;;;;;5016507;28;20037;-89
2022/07/30 01:42:27;;;;;;;118.32;67.95;;;13.90;99.90;;;;;;5000690;28;20030;-90
2022/07/30 01:44:54;;;;;;;116.85;70.05;;;14.00;99.90;;;;;;4999893;28;20087;-89
2022/07/30 01:47:21;;;;;;;117.88;70.97;;;14.00;99.90;;;;;;4999999;28;20473;-89
2022/07/30 01:49:49;;;;;;;109.60;64.35;;;14.00;99.90;;;;;;4999864;28;20051;-89
2022/07/30 01:52:17;;;;;;;114.97;70.60;;;14.00;99.90;;;;;;5016294;28;20037;-91
2022/07/30 01:54:49;;;;;;;114.97;68.57;;;14.00;99.90;;;;;;5016321;28;20029;-91
2022/07/30 01:57:18;;;;;;;117.30;67.55;;;14.00;99.90;;;;;;5000220;28;20026;-90
2022/07/30 01:59:49;;;;;;;107.57;66.20;;;14.00;99.90;;;;;;5016413;28;20026;-90
2022/07/30 02:02:15;;;;;;;102.43;66.10;;;14.00;99.90;;;;;;5000400;28;20030;-90
2022/07/30 02:04:41;;;;;;;92.85;60.78;;;14.00;99.90;;;;;;5000058;28;20084;-90
2022/07/30 02:07:17;;;;;;;85.88;58.00;;;14.10;99.90;;;;;;5000335;28;20034;-91
2022/07/30 02:09:52;;;;;;;89.18;59.25;;;14.10;99.90;;;;;;5000200;28;20034;-93
2022/07/30 02:12:30;;;;;;;85.38;57.58;;;14.00;99.90;;;;;;5000623;28;20084;-92
2022/07/30 02:15:00;;;;;;;93.07;58.80;;;14.00;99.90;;;;;;5001657;28;20058;-92
2022/07/30 02:17:31;;;;;;;88.60;56.47;;;13.90;99.90;;;;;;5001494;28;20029;-92
2022/07/30 02:19:59;;;;;;;89.82;56.35;;;13.90;99.90;;;;;;5001250;28;20022;-93
2022/07/30 02:22:49;;;;;;;90.10;55.35;;;13.80;99.90;;;;;;5000627;28;20025;-91
2022/07/30 02:25:19;;;;;;;99.77;58.83;;;13.80;99.90;;;;;;4999522;28;20379;-92
2022/07/30 02:27:51;;;;;;;91.47;57.53;;;13.80;99.90;;;;;;4999376;28;20026;-91
2022/07/30 02:30:17;;;;;;;92.10;56.70;;;13.90;99.90;;;;;;4999760;28;20035;-91
2022/07/30 02:32:47;;;;;;;95.05;60.75;;;13.90;99.90;;;;;;4999713;28;20117;-90
2022/07/30 02:35:19;;;;;;;94.10;59.30;;;13.90;99.90;;;;;;4999334;28;20026;-91
2022/07/30 02:37:47;;;;;;;;;;;14.00;99.90;;;;;;5000063;28;20022;-94
2022/07/30 02:40:16;;;;;;;89.18;60.33;;;13.90;99.90;;;;;;5000168;28;19913;-91
2022/07/30 02:42:49;;;;;;;86.47;56.72;;;13.90;99.90;;;;;;4999928;28;20053;-94
2022/07/30 02:45:21;;;;;;;85.05;56.58;;;13.90;99.90;;;;;;4999876;28;20385;-93
2022/07/30 02:48:05;;;;;;;87.45;55.65;;;14.00;99.90;;;;;;4999422;28;20092;-93
2022/07/30 02:50:32;;;;;;;87.22;55.28;;;14.00;99.90;;;;;;4999482;28;20029;-91
2022/07/30 02:53:00;;;;;;;85.35;55.50;;;14.00;99.90;;;;;;4999536;28;20041;-91
2022/07/30 02:55:28;;;;;;;90.15;54.10;;;14.00;99.90;;;;;;4999418;28;20026;-93
2022/07/30 02:57:56;;;;;;;83.78;55.22;;;13.90;99.90;;;;;;5000354;28;20036;-92
2022/07/30 03:00:25;;;;;;;92.32;60.97;;;14.00;99.90;;;;;;4999459;28;20028;-93
2022/07/30 03:02:54;;;;;;;101.88;64.53;;;14.00;99.90;;;;;;4999622;28;20076;-92
2022/07/30 03:05:20;;;;;;;114.13;65.88;;;14.00;99.90;;;;;;4999400;28;20089;-92
2022/07/30 03:07:47;;;;;;;99.47;63.40;;;14.00;99.90;;;;;;4999364;28;20052;-92
2022/07/30 03:10:14;;;;;;;104.70;64.75;;;14.00;99.90;;;;;;4999578;28;20030;-92
2022/07/30 03:12:44;;;;;;;104.57;65.85;;;14.00;99.90;;;;;;4999130;28;20053;-91
2022/07/30 03:15:12;;;;;;;105.90;64.68;;;14.00;99.90;;;;;;4999716;28;20104;-92
2022/07/30 03:17:43;;;;;;;114.40;68.28;;;14.00;99.90;;;;;;4999906;28;20026;-93
2022/07/30 03:20:14;;;;;;;110.82;66.30;;;14.10;99.90;;;;;;5000068;28;20120;-92
2022/07/30 03:22:43;;;;;;;116.53;70.32;;;14.00;99.90;;;;;;4999470;28;20030;-91
2022/07/30 03:25:11;;;;;;;111.28;69.97;;;14.00;99.90;;;;;;4999317;28;20431;-92
2022/07/30 03:27:38;;;;;;;130.55;75.80;;;14.00;99.90;;;;;;4999339;28;20036;-93
2022/07/30 03:30:05;;;;;;;123.90;75.13;;;14.00;99.90;;;;;;4999861;28;20591;-93
2022/07/30 03:32:33;;;;;;;146.00;78.47;;;14.00;99.90;;;;;;4999107;28;20386;-94
2022/07/30 03:35:00;;;;;;;130.95;75.78;;;14.10;99.90;;;;;;5000201;28;20037;-94
2022/07/30 03:37:26;;;;;;;139.63;77.13;;;14.00;99.90;;;;;;5000338;28;20108;-94
2022/07/30 03:39:54;;;;;;;150.52;80.53;;;14.00;99.90;;;;;;4999373;28;20030;-93
2022/07/30 03:42:20;;;;;;;154.15;85.53;;;14.00;99.90;;;;;;5000005;28;20065;-93
2022/07/30 03:44:47;;;;;;;142.43;78.53;;;14.00;99.90;;;;;;4998617;28;20029;-93
2022/07/30 03:47:14;;;;;;;139.15;79.40;;;14.00;99.90;;;;;;4999066;28;20033;-94
2022/07/30 03:49:45;;;;;;;153.38;84.03;;;14.00;99.90;;;;;;4999811;28;20037;-94
2022/07/30 03:52:12;;;;;;;164.90;85.28;;;14.00;99.90;;;;;;4998530;28;20026;-91
2022/07/30 03:54:38;;;;;;;167.60;86.35;;;14.00;99.90;;;;;;4998636;28;20053;-92
2022/07/30 03:57:30;;;;;;;160.43;85.43;;;14.00;99.90;;;;;;5011627;28;20482;-91
2022/07/30 03:59:57;;;;;;;157.50;85.88;;;13.90;99.90;;;;;;4997481;28;20049;-91
2022/07/30 04:02:45;;;;;;;169.15;87.00;;;13.90;99.90;;;;;;4997281;28;20038;-91
2022/07/30 04:05:46;;;;;;;171.35;88.60;;;14.00;99.90;;;;;;5006982;28;20026;-92
2022/07/30 04:08:12;;;;;;;162.93;87.95;;;14.00;99.90;;;;;;5013481;28;20041;-91
2022/07/30 04:10:38;;;;;;;177.10;90.15;;;14.00;99.90;;;;;;4997447;28;20048;-92
2022/07/30 04:13:04;;;;;;;164.63;89.82;;;14.00;99.90;;;;;;5014692;28;20065;-91
2022/07/30 04:15:36;;;;;;;163.75;91.43;;;14.00;99.90;;;;;;5013211;28;20030;-90
2022/07/30 04:18:04;;;;;;;175.93;90.80;;;14.00;99.90;;;;;;5012946;28;20417;-91
2022/07/30 04:20:42;;;;;;;166.93;89.88;;;14.00;99.90;;;;;;4996576;28;20034;-90
2022/07/30 04:23:09;;;;;;;170.70;91.97;;;14.00;99.90;;;;;;5013171;28;20037;-91
2022/07/30 04:25:37;;;;;;;177.30;92.82;;;14.00;99.90;;;;;;4997328;28;20112;-89
2022/07/30 04:28:04;;;;;;;166.10;90.72;;;14.00;99.90;;;;;;4997033;28;20096;-91
2022/07/30 04:30:34;;;;;;;184.77;93.60;;;14.00;99.90;;;;;;5012752;28;20448;-92
2022/07/30 04:33:02;;;;;;;171.32;89.82;;;14.00;99.90;;;;;;5012792;28;20080;-92
2022/07/30 04:35:40;;;;;;;176.27;91.53;;;14.00;99.90;;;;;;5014342;28;20034;-92
2022/07/30 04:38:16;;;;;;;169.00;88.10;;;14.00;99.90;;;;;;5012761;28;20030;-91
2022/07/30 04:40:46;;;;;;;150.18;84.82;;;14.00;99.90;;;;;;4997258;28;20672;-91
2022/07/30 04:43:12;;;;;;;155.05;83.32;;;14.10;99.90;;;;;;4996496;28;20044;-90
2022/07/30 04:45:51;;;;;;;139.25;81.50;;;14.10;99.90;;;;;;4996449;28;20125;-91
2022/07/30 04:48:17;;;;;;;136.60;77.63;;;14.10;99.90;;;;;;5016688;28;20034;-91
2022/07/30 04:50:52;;;;;;;123.10;75.30;;;14.10;99.90;;;;;;5017277;28;20041;-90
2022/07/30 04:53:20;;;;;;;116.18;71.22;;;14.10;99.90;;;;;;5000643;28;20659;-92
2022/07/30 04:55:52;;;;;;;111.70;66.72;;;14.10;99.90;;;;;;5001136;28;20037;-90
2022/07/30 04:58:22;;;;;;;108.22;64.15;;;14.20;99.90;;;;;;5000839;28;20157;-90
2022/07/30 05:00:50;;;;;;;92.13;63.13;;;14.20;99.90;;;;;;5016949;28;20490;-90
2022/07/30 05:03:20;;;;;;;;;;;14.20;99.90;;;;;;5017005;28;20477;-90
2022/07/30 05:05:50;;;;;;;99.97;63.08;;;14.20;99.90;;;;;;5016643;28;19909;-91
2022/07/30 05:08:16;;;;;;;93.18;60.28;;;14.30;99.90;;;;;;5000096;28;20026;-89
2022/07/30 05:10:43;;;;;;;93.50;60.97;;;14.30;99.90;;;;;;5016206;28;20474;-90
2022/07/30 05:13:12;;;;;;;86.30;56.58;;;14.40;99.90;;;;;;5000220;28;20116;-90
2022/07/30 05:15:45;;;;;;;76.63;52.63;;;14.40;99.90;;;;;;4999985;28;20041;-90
2022/07/30 05:18:12;;;;;;;82.25;53.40;;;14.50;99.90;;;;;;5000068;28;20613;-92
2022/07/30 05:20:41;;;;;;;76.82;52.20;;;14.50;99.90;;;;;;5000088;28;20026;-89
2022/07/30 05:23:27;;;;;;;73.60;50.95;;;14.60;99.90;;;;;;5015505;28;20091;-89
2022/07/30 05:26:12;;;;;;;66.75;47.03;;;14.60;99.90;;;;;;5001347;28;20041;-90
2022/07/30 05:28:48;;;;;;;73.95;45.50;;;14.70;99.90;;;;;;5016785;28;20030;-90
2022/07/30 05:31:17;;;;;;;66.63;45.30;;;14.70;99.90;;;;;;5001113;28;20084;-90
2022/07/30 05:33:51;;;;;;;60.58;41.10;;;14.80;99.90;;;;;;5000448;28;20033;-91
2022/07/30 05:36:22;;;;;;;56.65;39.15;;;14.80;99.90;;;;;;5000174;28;20022;-91
2022/07/30 05:38:48;;;;;;;51.70;37.00;;;14.90;99.90;;;;;;5000008;28;20358;-92
2022/07/30 05:41:49;;;;;;;51.75;36.22;;;14.90;99.90;;;;;;5003003;28;20030;-91
2022/07/30 05:44:20;;;;;;;53.72;34.35;;;14.90;99.90;;;;;;4999744;28;20046;-91
2022/07/30 05:46:46;;;;;;;43.63;34.90;;;15.00;99.90;;;;;;5015858;28;20050;-91
2022/07/30 05:49:12;;;;;;;46.65;33.67;;;15.00;99.90;;;;;;4999412;28;20034;-92
2022/07/30 05:51:38;;;;;;;43.25;33.13;;;15.00;99.90;;;;;;4999538;28;20024;-92
2022/07/30 05:54:04;;;;;;;47.55;31.98;;;15.10;99.90;;;;;;5000069;28;20120;-91
2022/07/30 05:56:48;;;;;;;42.75;30.00;;;15.20;99.90;;;;;;5016714;28;20456;-94
2022/07/30 05:59:27;;;;;;;37.83;28.25;;;15.20;99.90;;;;;;5001721;28;20076;-93
2022/07/30 06:02:02;;;;;;;35.20;26.13;;;15.30;99.90;;;;;;5016225;28;20128;-92
2022/07/30 06:04:40;;;;;;;38.90;27.08;;;15.30;99.90;;;;;;5015803;28;20030;-90
2022/07/30 06:07:06;;;;;;;34.45;25.88;;;15.40;99.90;;;;;;4999166;28;20076;-92
2022/07/30 06:09:32;;;;;;;40.38;27.88;;;15.50;99.90;;;;;;4999503;28;20038;-91
2022/07/30 06:11:58;;;;;;;41.38;30.45;;;15.50;99.90;;;;;;4999475;28;20560;-92
2022/07/30 06:14:24;;;;;;;40.95;30.13;;;15.50;99.90;;;;;;5015663;28;20022;-92
2022/07/30 06:16:50;;;;;;;38.00;28.90;;;15.50;99.90;;;;;;5015922;28;20026;-92
2022/07/30 06:19:22;;;;;;;41.75;28.63;;;15.50;99.90;;;;;;5015625;28;20030;-91
2022/07/30 06:21:47;;;;;;;37.30;27.85;;;15.50;99.90;;;;;;5015863;28;20044;-92
2022/07/30 06:24:15;;;;;;;37.92;25.20;;;15.60;99.90;;;;;;4999043;28;20032;-93
2022/07/30 06:27:00;;;;;;;30.02;23.80;;;15.70;99.90;;;;;;5015490;28;20435;-91
2022/07/30 06:29:26;;;;;;;31.17;23.38;;;15.70;99.90;;;;;;5015035;28;20846;-92
2022/07/30 06:31:52;;;;;;;36.10;22.45;;;15.80;99.90;;;;;;4999307;28;20033;-92
2022/07/30 06:34:19;;;;;;;32.05;21.67;;;15.90;99.90;;;;;;5015092;28;20029;-92
2022/07/30 06:36:45;;;;;;;31.45;20.83;;;16.00;99.90;;;;;;4999072;28;20030;-92
2022/07/30 06:39:19;;;;;;;24.30;19.95;;;16.00;99.90;;;;;;4999703;28;20034;-92
2022/07/30 06:41:57;;;;;;;37.88;21.02;;;16.10;99.90;;;;;;5015690;28;20045;-92
2022/07/30 06:44:26;;;;;;;30.88;21.00;;;16.20;99.90;;;;;;4999955;28;20140;-92
2022/07/30 06:47:07;;;;;;;28.45;21.02;;;16.30;99.90;;;;;;5016238;28;20038;-91
2022/07/30 06:49:34;;;;;;;22.63;19.40;;;16.30;99.90;;;;;;4998506;28;20030;-91
2022/07/30 06:52:00;;;;;;;29.17;19.38;;;16.30;99.90;;;;;;5014845;28;20436;-92
2022/07/30 06:54:28;;;;;;;26.50;20.25;;;16.30;99.90;;;;;;4998826;28;20049;-92
2022/07/30 06:57:02;;;;;;;26.90;19.25;;;16.40;99.90;;;;;;4999917;28;20314;-91
2022/07/30 06:59:37;;;;;;;29.10;20.05;;;16.40;99.90;;;;;;4998546;28;20061;-92
2022/07/30 07:02:23;;;;;;;23.33;17.98;;;16.50;99.90;;;;;;5001214;28;20076;-91
2022/07/30 07:05:08;;;;;;;22.20;16.80;;;16.60;99.90;;;;;;5000550;28;20033;-88
2022/07/30 07:07:35;;;;;;;24.35;18.52;;;16.60;99.90;;;;;;4998619;28;20072;-90
2022/07/30 07:10:11;;;;;;;32.72;16.85;;;16.70;99.90;;;;;;4997368;28;20030;-91
2022/07/30 07:12:59;;;;;;;25.77;17.73;;;16.80;99.90;;;;;;5000290;28;20061;-91
2022/07/30 07:15:28;;;;;;;27.90;17.05;;;16.90;99.90;;;;;;4997339;28;20111;-90
2022/07/30 07:17:54;;;;;;;26.10;16.70;;;17.00;99.90;;;;;;4997324;28;20022;-91
2022/07/30 07:21:13;;;;;;;22.50;16.80;;;17.10;99.90;;;;;;5013825;28;20057;-90
2022/07/30 07:23:39;;;;;;;22.00;15.48;;;17.20;99.90;;;;;;4997236;28;20072;-91
2022/07/30 07:26:05;;;;;;;26.05;16.38;;;17.20;99.90;;;;;;5013254;28;20021;-90
2022/07/30 07:28:31;;;;;;;19.90;14.80;;;17.40;99.90;;;;;;4996435;28;20048;-88
2022/07/30 07:30:57;;;;;;;22.88;14.43;;;17.40;99.90;;;;;;4996885;28;20032;-88
2022/07/30 07:33:23;;;;;;;16.85;12.77;;;17.50;99.90;;;;;;4996499;28;20030;-89
2022/07/30 07:35:49;;;;;;;22.27;14.50;;;17.60;99.90;;;;;;5013397;28;20112;-89
2022/07/30 07:38:19;;;;;;;21.80;14.02;;;17.80;99.90;;;;;;5013441;28;20346;-89
2022/07/30 07:40:47;;;;;;;25.27;14.15;;;17.80;99.90;;;;;;5013654;28;20394;-88
2022/07/30 07:43:13;;;;;;;16.35;12.60;;;17.80;99.90;;;;;;5013232;28;20038;-88
2022/07/30 07:45:41;;;;;;;20.65;12.65;;;17.90;99.90;;;;;;5013368;28;20034;-89
2022/07/30 07:48:07;;;;;;;21.67;13.57;;;18.00;99.90;;;;;;4996622;28;20068;-89
2022/07/30 07:50:50;;;;;;;21.10;12.73;;;18.10;99.90;;;;;;4999868;28;20104;-89
2022/07/30 07:53:43;;;;;;;;;;;18.30;99.90;;;;;;4998122;28;20026;-88
2022/07/30 07:56:09;;;;;;;17.98;12.38;;;18.30;99.90;;;;;;4997268;28;19915;-88
2022/07/30 07:58:35;;;;;;;17.67;12.52;;;18.40;99.90;;;;;;4997024;28;20132;-87
2022/07/30 08:01:00;;;;;;;19.67;12.40;;;18.50;99.90;;;;;;5014498;28;20037;-89
2022/07/30 08:03:46;;;;;;;20.98;13.25;;;18.50;99.90;;;;;;5012851;28;20037;-88
2022/07/30 08:06:31;;;;;;;15.98;12.00;;;18.60;99.90;;;;;;5012995;28;20052;-89
2022/07/30 08:09:15;;;;;;;19.85;11.88;;;18.70;99.90;;;;;;5012544;28;20048;-89
2022/07/30 08:12:15;;;;;;;18.90;10.55;;;19.60;99.90;;;;;;4972787;28;20142;-88
2022/07/30 08:14:59;;;;;;;12.27;9.20;;;21.20;99.90;;;;;;4972281;28;20170;-88
2022/07/30 08:17:44;;;;;;;14.65;8.73;;;22.50;99.90;;;;;;4957992;28;20039;-89
2022/07/30 08:20:31;;;;;;;12.07;8.23;;;23.20;99.90;;;;;;4994104;28;20034;-88
2022/07/30 08:22:57;;;;;;;22.85;8.32;;;23.60;99.90;;;;;;4995917;28;20030;-88
2022/07/30 08:25:25;;;;;;;12.05;8.27;;;24.10;99.90;;;;;;5010578;28;20036;-89
2022/07/30 08:27:52;;;;;;;14.07;8.10;;;24.70;99.90;;;;;;4996279;28;20164;-89
2022/07/30 08:30:18;;;;;;;14.75;7.38;;;25.00;99.90;;;;;;4996007;28;20041;-88
2022/07/30 08:32:44;;;;;;;9.18;7.63;;;25.20;99.90;;;;;;4996046;28;20032;-87
2022/07/30 08:35:10;;;;;;;11.73;7.65;;;25.60;99.90;;;;;;4996033;28;20467;-88
2022/07/30 08:37:36;;;;;;;13.07;7.22;;;25.80;99.90;;;;;;4996250;28;20030;-89
2022/07/30 08:40:03;;;;;;;12.00;7.00;;;25.90;99.90;;;;;;4996201;28;20030;-89
2022/07/30 08:42:33;;;;;;;15.57;7.80;;;25.80;99.90;;;;;;4996195;28;20092;-88
2022/07/30 08:44:59;;;;;;;11.45;8.20;;;26.00;99.90;;;;;;4995720;28;20034;-88
2022/07/30 08:47:30;;;;;;;13.02;7.90;;;25.70;99.90;;;;;;4996084;28;20030;-89
2022/07/30 08:50:08;;;;;;;14.45;7.32;;;26.00;99.90;;;;;;5012381;28;20041;-89
2022/07/30 08:52:41;;;;;;;18.83;8.23;;;25.80;99.90;;;;;;4996554;28;20049;-89
2022/07/30 08:55:07;;;;;;;13.52;6.72;;;25.60;99.90;;;;;;4995241;28;20398;-90
2022/07/30 08:57:34;;;;;;;13.45;7.38;;;26.10;99.90;;;;;;5011621;28;20038;-89
2022/07/30 09:00:02;;;;;;;12.05;6.80;;;26.10;99.90;;;;;;4996159;28;20030;-89
2022/07/30 09:02:30;;;;;;;15.60;6.70;;;26.70;99.90;;;;;;4995708;28;20460;-89
2022/07/30 09:05:03;;;;;;;8.93;7.05;;;26.90;99.90;;;;;;5011738;28;20117;-90
2022/07/30 09:07:32;;;;;;;16.38;6.63;;;27.20;99.90;;;;;;4995210;28;20029;-88
2022/07/30 09:09:59;;;;;;;13.68;6.07;;;27.30;99.90;;;;;;5011591;28;20030;-88
2022/07/30 09:12:38;;;;;;;9.30;6.50;;;27.40;99.90;;;;;;5011142;28;20036;-88
2022/07/30 09:15:17;;;;;;;12.70;5.72;;;27.30;99.90;;;;;;5011497;28;20432;-89
2022/07/30 09:17:56;;;;;;;12.27;6.43;;;27.30;99.90;;;;;;4995519;28;20041;-89
2022/07/30 09:20:28;;;;;;;11.07;6.25;;;27.30;99.90;;;;;;4996301;28;20034;-90
2022/07/30 09:23:04;;;;;;;18.15;5.95;;;27.80;99.90;;;;;;4996261;28;20041;-88
2022/07/30 09:25:49;;;;;;;10.73;5.75;;;27.60;99.90;;;;;;5012271;28;20121;-89
2022/07/30 09:28:35;;;;;;;8.35;6.32;;;27.40;99.90;;;;;;5011940;28;20040;-89
2022/07/30 09:31:13;;;;;;;7.97;5.97;;;27.80;99.90;;;;;;5013012;28;20117;-88
2022/07/30 09:34:22;;;;;;;10.70;6.13;;;28.10;99.90;;;;;;5015820;28;20072;-89
2022/07/30 09:37:15;;;;;;;13.55;6.00;;;28.70;99.40;;;;;;5015458;28;20033;-90
2022/07/30 09:40:11;;;;;;;9.20;5.88;;;28.90;98.70;;;;;;4980215;28;20055;-89
2022/07/30 09:43:22;;;;;;;10.90;7.00;;;29.00;98.10;;;;;;4975335;28;20035;-90
2022/07/30 09:46:03;;;;;;;10.73;6.30;;;26.60;98.40;;;;;;4973797;28;20117;-87
2022/07/30 09:48:29;;;;;;;8.63;6.28;;;26.00;99.40;;;;;;4994332;28;20042;-86
2022/07/30 09:50:55;;;;;;;12.55;7.40;;;25.60;99.90;;;;;;4998516;28;20075;-88
2022/07/30 09:53:21;;;;;;;15.27;7.32;;;24.70;99.90;;;;;;4998385;28;20799;-88
2022/07/30 09:55:47;;;;;;;11.85;7.03;;;25.00;99.90;;;;;;5014528;28;20041;-89
2022/07/30 09:58:14;;;;;;;12.00;7.50;;;25.20;99.90;;;;;;4998443;28;20037;-89
2022/07/30 10:00:40;;;;;;;16.38;7.80;;;25.60;99.90;;;;;;5014366;28;20371;-88
2022/07/30 10:03:25;;;;;;;12.95;7.28;;;25.40;99.90;;;;;;5000231;28;20044;-88
2022/07/30 10:06:09;;;;;;;11.80;6.53;;;25.50;99.90;;;;;;5016075;28;20080;-90
2022/07/30 10:08:45;;;;;;;14.77;7.57;;;25.50;99.90;;;;;;4999162;28;20033;-89
2022/07/30 10:11:21;;;;;;;16.17;7.78;;;25.40;99.90;;;;;;4998509;28;20038;-90
2022/07/30 10:13:59;;;;;;;14.18;6.63;;;25.60;99.90;;;;;;5014670;28;20083;-89
2022/07/30 10:16:26;;;;;;;11.15;7.47;;;25.80;99.40;;;;;;4998714;28;20037;-89
2022/07/30 10:18:56;;;;;;;10.35;7.10;;;25.80;98.60;;;;;;4998832;28;20164;-89
2022/07/30 10:21:40;;;;;;;12.30;7.15;;;25.40;98.20;;;;;;5014961;28;20037;-90
2022/07/30 10:24:34;;;;;;;14.23;7.78;;;25.40;99.00;;;;;;5015280;28;20085;-89
2022/07/30 10:27:19;;;;;;;10.63;6.90;;;25.30;98.30;;;;;;5015001;28;20099;-90
2022/07/30 10:29:57;;;;;;;12.10;7.65;;;25.20;99.00;;;;;;4999254;28;20042;-89
2022/07/30 10:32:25;;;;;;;15.23;7.03;;;24.60;98.50;;;;;;4998013;28;20491;-88
2022/07/30 10:34:51;;;;;;;12.45;7.20;;;24.70;98.90;;;;;;4997283;28;20034;-89
2022/07/30 10:37:19;;;;;;;14.40;7.18;;;24.90;98.90;;;;;;4997705;28;20474;-90
2022/07/30 10:39:58;;;;;;;11.63;7.55;;;25.40;99.40;;;;;;4997525;28;20153;-89
2022/07/30 10:42:51;;;;;;;14.73;7.35;;;25.30;98.40;;;;;;4997818;28;20034;-88
2022/07/30 10:45:42;;;;;;;10.63;7.00;;;25.50;97.50;;;;;;4996882;28;20034;-88
2022/07/30 10:48:08;;;;;;;12.00;7.00;;;25.70;97.20;;;;;;5014056;28;20381;-91
2022/07/30 10:50:49;;;;;;;16.27;7.22;;;25.90;96.60;;;;;;4997237;28;20037;-89
2022/07/30 10:53:30;;;;;;;;;;;26.30;97.30;;;;;;4998035;28;20032;-87
2022/07/30 10:56:21;;;;;;;14.15;7.85;;;26.40;95.70;;;;;;5014242;28;19909;-90
2022/07/30 10:59:07;;;;;;;11.00;6.82;;;26.70;96.10;;;;;;5014113;28;20052;-89
2022/07/30 11:01:48;;;;;;;17.02;9.38;;;26.70;95.50;;;;;;4997797;28;20041;-89
2022/07/30 11:04:22;;;;;;;14.65;7.47;;;26.40;95.60;;;;;;5013536;28;20057;-89
2022/07/30 11:06:49;;;;;;;15.05;8.25;;;26.60;95.00;;;;;;4997571;28;20037;-89
2022/07/30 11:09:39;;;;;;;16.13;8.77;;;27.10;94.70;;;;;;5013412;28;20041;-88
2022/07/30 11:12:06;;;;;;;17.80;8.57;;;27.10;93.70;;;;;;4996992;28;20810;-88
2022/07/30 11:14:47;;;;;;;13.02;8.40;;;27.00;94.00;;;;;;4996388;28;20033;-88
2022/07/30 11:17:14;;;;;;;15.82;8.07;;;26.70;93.30;;;;;;5012715;28;20074;-88
2022/07/30 11:20:11;;;;;;;13.68;8.23;;;26.40;94.50;;;;;;4995747;28;20133;-87
2022/07/30 11:22:43;;;;;;;14.93;8.95;;;26.20;94.50;;;;;;4995862;28;20034;-89
2022/07/30 11:25:29;;;;;;;10.20;7.35;;;26.40;93.80;;;;;;5012196;28;20852;-89
2022/07/30 11:27:55;;;;;;;15.70;7.68;;;27.20;94.80;;;;;;4985756;28;20726;-89
2022/07/30 11:30:21;;;;;;;17.40;6.55;;;27.70;93.70;;;;;;4996070;28;20041;-89
2022/07/30 11:32:56;;;;;;;12.63;6.97;;;27.70;94.00;;;;;;4996182;28;20481;-88
2022/07/30 11:35:24;;;;;;;16.95;7.55;;;27.20;92.50;;;;;;4995886;28;20477;-88
2022/07/30 11:38:19;;;;;;;11.35;6.00;;;26.70;93.00;;;;;;4996384;28;20088;-90
2022/07/30 11:40:45;;;;;;;13.65;6.00;;;27.10;94.10;;;;;;5013974;28;20022;-89
2022/07/30 11:43:40;;;;;;;12.40;5.90;;;27.60;93.20;;;;;;4996101;28;20025;-89
2022/07/30 11:46:11;;;;;;;9.82;6.35;;;27.40;92.80;;;;;;4996010;28;20030;-89
2022/07/30 11:48:37;;;;;;;;;;;27.00;93.00;;;;;;4997017;28;20543;-89
2022/07/30 11:51:04;;;;;;;11.88;5.80;;;26.80;92.90;;;;;;5012672;28;19914;-88
2022/07/30 11:53:29;;;;;;;9.63;5.03;;;27.00;92.30;;;;;;5013391;28;20018;-88
2022/07/30 11:55:59;;;;;;;9.50;5.63;;;26.80;93.40;;;;;;5012227;28;20037;-89
2022/07/30 11:58:34;;;;;;;7.03;5.78;;;27.10;92.20;;;;;;5012019;28;20061;-87
2022/07/30 12:01:05;;;;;;;13.10;5.65;;;26.90;92.20;;;;;;5012484;28;20088;-89
2022/07/30 12:03:31;;;;;;;8.25;5.35;;;26.70;91.60;;;;;;5011657;28;20040;-87
2022/07/30 12:06:06;;;;;;;16.05;5.63;;;26.60;91.60;;;;;;4995798;28;20211;-90
2022/07/30 12:08:43;;;;;;;10.85;5.00;;;26.60;91.80;;;;;;4995531;28;20093;-89
2022/07/30 12:11:10;;;;;;;8.75;4.95;;;26.60;92.00;;;;;;4995263;28;20061;-89
2022/07/30 12:13:36;;;;;;;5.97;4.63;;;26.60;92.20;;;;;;5011673;28;20037;-89
2022/07/30 12:16:08;;;;;;;11.18;4.05;;;27.20;91.30;;;;;;5010396;28;20881;-89
2022/07/30 12:18:34;;;;;;;14.80;4.38;;;27.60;90.70;;;;;;4996801;28;20097;-89
2022/07/30 12:21:02;;;;;;;9.68;3.85;;;27.10;90.70;;;;;;5012578;28;20044;-89
2022/07/30 12:23:29;;;;;;;8.50;4.13;;;27.20;91.60;;;;;;4995295;28;20034;-88
2022/07/30 12:25:56;;;;;;;9.73;4.20;;;27.30;91.40;;;;;;5011698;28;20029;-88
2022/07/30 12:28:27;;;;;;;6.28;3.80;;;27.70;91.80;;;;;;5012896;28;20042;-89
2022/07/30 12:30:54;;;;;;;7.60;3.15;;;27.80;90.50;;;;;;5011298;28;20149;-89
2022/07/30 12:33:20;;;;;;;6.15;3.50;;;27.10;90.00;;;;;;4994860;28;20033;-88
2022/07/30 12:35:52;;;;;;;10.90;4.32;;;26.40;90.40;;;;;;5012005;28;20080;-88
2022/07/30 12:38:19;;;;;;;6.85;3.63;;;25.60;91.20;;;;;;5011742;28;20398;-88
2022/07/30 12:41:01;;;;;;;6.15;3.83;;;25.20;91.40;;;;;;5011731;28;20149;-89
2022/07/30 12:43:43;;;;;;;11.73;4.57;;;25.80;91.10;;;;;;5011065;28;20048;-88
2022/07/30 12:46:10;;;;;;;9.38;3.35;;;26.10;90.30;;;;;;5011633;28;20505;-88
2022/07/30 12:48:36;;;;;;;6.53;3.45;;;26.40;91.50;;;;;;4996455;28;20056;-88
2022/07/30 12:51:09;;;;;;;9.82;3.80;;;27.20;91.00;;;;;;4995710;28;20022;-89
2022/07/30 12:53:35;;;;;;;6.32;3.08;;;27.10;88.10;;;;;;5011133;28;20026;-88
2022/07/30 12:56:19;;;;;;;10.82;4.00;;;26.40;89.40;;;;;;4995376;28;20084;-90